sensor_id;sensor_type;location;lat;lon;timestamp;P1;durP1;ratioP1;P2;durP2;ratioP2
64667;SDS011;51077;42.716;23.344;2023-03-07T00:00:42;19.48;;;11.80;;
64667;SDS011;51077;42.716;23.344;2023-03-07T00:03:10;21.80;;;11.95;;
64667;SDS011;51077;42.716;23.344;2023-03-07T00:05:36;20.92;;;11.32;;
64667;SDS011;51077;42.716;23.344;2023-03-07T00:08:02;21.70;;;12.00;;
64667;SDS011;51077;42.716;23.344;2023-03-07T00:10:27;19.17;;;10.73;;
64667;SDS011;51077;42.716;23.344;2023-03-07T00:12:53;18.23;;;11.33;;
64667;SDS011;51077;42.716;23.344;2023-03-07T00:15:18;17.83;;;11.00;;
64667;SDS011;51077;42.716;23.344;2023-03-07T00:17:45;16.73;;;9.98;;
64667;SDS011;51077;42.716;23.344;2023-03-07T00:20:10;17.87;;;10.07;;
64667;SDS011;51077;42.716;23.344;2023-03-07T00:22:38;14.63;;;9.85;;
64667;SDS011;51077;42.716;23.344;2023-03-07T00:25:04;17.40;;;10.03;;
64667;SDS011;51077;42.716;23.344;2023-03-07T00:27:30;18.27;;;10.23;;
64667;SDS011;51077;42.716;23.344;2023-03-07T00:29:56;17.95;;;9.80;;
64667;SDS011;51077;42.716;23.344;2023-03-07T00:32:22;17.88;;;10.13;;
64667;SDS011;51077;42.716;23.344;2023-03-07T00:34:48;18.77;;;11.37;;
64667;SDS011;51077;42.716;23.344;2023-03-07T00:37:13;17.50;;;9.63;;
64667;SDS011;51077;42.716;23.344;2023-03-07T00:39:39;18.60;;;10.23;;
64667;SDS011;51077;42.716;23.344;2023-03-07T00:42:05;16.95;;;10.18;;
64667;SDS011;51077;42.716;23.344;2023-03-07T00:44:31;18.20;;;10.20;;
64667;SDS011;51077;42.716;23.344;2023-03-07T00:46:56;19.60;;;9.90;;
64667;SDS011;51077;42.716;23.344;2023-03-07T00:49:22;17.20;;;9.63;;
64667;SDS011;51077;42.716;23.344;2023-03-07T00:51:48;16.67;;;9.63;;
64667;SDS011;51077;42.716;23.344;2023-03-07T00:54:13;18.17;;;9.60;;
64667;SDS011;51077;42.716;23.344;2023-03-07T00:56:39;16.63;;;8.93;;
64667;SDS011;51077;42.716;23.344;2023-03-07T00:59:05;13.82;;;8.50;;
64667;SDS011;51077;42.716;23.344;2023-03-07T01:01:30;14.73;;;9.17;;
64667;SDS011;51077;42.716;23.344;2023-03-07T01:03:56;15.80;;;9.97;;
64667;SDS011;51077;42.716;23.344;2023-03-07T01:06:22;17.77;;;8.90;;
64667;SDS011;51077;42.716;23.344;2023-03-07T01:08:50;14.20;;;8.88;;
64667;SDS011;51077;42.716;23.344;2023-03-07T01:11:15;15.00;;;8.70;;
64667;SDS011;51077;42.716;23.344;2023-03-07T01:13:41;14.47;;;8.50;;
64667;SDS011;51077;42.716;23.344;2023-03-07T01:18:32;18.00;;;8.60;;
64667;SDS011;51077;42.716;23.344;2023-03-07T01:20:57;15.07;;;8.40;;
64667;SDS011;51077;42.716;23.344;2023-03-07T01:23:23;16.00;;;8.37;;
64667;SDS011;51077;42.716;23.344;2023-03-07T01:25:48;15.13;;;9.00;;
64667;SDS011;51077;42.716;23.344;2023-03-07T01:28:13;17.03;;;8.70;;
64667;SDS011;51077;42.716;23.344;2023-03-07T01:30:39;15.53;;;8.63;;
64667;SDS011;51077;42.716;23.344;2023-03-07T01:33:05;12.60;;;7.80;;
64667;SDS011;51077;42.716;23.344;2023-03-07T01:35:35;16.33;;;8.10;;
64667;SDS011;51077;42.716;23.344;2023-03-07T01:38:01;14.10;;;7.97;;
64667;SDS011;51077;42.716;23.344;2023-03-07T01:40:27;14.35;;;7.90;;
64667;SDS011;51077;42.716;23.344;2023-03-07T01:42:53;11.97;;;7.63;;
64667;SDS011;51077;42.716;23.344;2023-03-07T01:48:09;13.90;;;8.13;;
64667;SDS011;51077;42.716;23.344;2023-03-07T01:50:34;14.93;;;7.67;;
64667;SDS011;51077;42.716;23.344;2023-03-07T01:53:00;11.63;;;7.00;;
64667;SDS011;51077;42.716;23.344;2023-03-07T01:55:27;13.37;;;8.17;;
64667;SDS011;51077;42.716;23.344;2023-03-07T01:57:55;12.82;;;7.72;;
64667;SDS011;51077;42.716;23.344;2023-03-07T02:00:27;12.57;;;8.10;;
64667;SDS011;51077;42.716;23.344;2023-03-07T02:03:10;12.88;;;7.53;;
64667;SDS011;51077;42.716;23.344;2023-03-07T02:05:44;12.77;;;7.82;;
64667;SDS011;51077;42.716;23.344;2023-03-07T02:08:14;15.13;;;7.82;;
64667;SDS011;51077;42.716;23.344;2023-03-07T02:10:40;12.27;;;7.70;;
64667;SDS011;51077;42.716;23.344;2023-03-07T02:13:07;12.68;;;7.30;;
64667;SDS011;51077;42.716;23.344;2023-03-07T02:15:33;11.15;;;7.22;;
64667;SDS011;51077;42.716;23.344;2023-03-07T02:17:59;14.68;;;7.40;;
64667;SDS011;51077;42.716;23.344;2023-03-07T02:22:54;10.60;;;6.63;;
64667;SDS011;51077;42.716;23.344;2023-03-07T02:25:27;10.63;;;6.53;;
64667;SDS011;51077;42.716;23.344;2023-03-07T02:28:00;12.85;;;7.80;;
64667;SDS011;51077;42.716;23.344;2023-03-07T02:30:28;16.13;;;8.23;;
64667;SDS011;51077;42.716;23.344;2023-03-07T02:32:54;10.77;;;6.93;;
64667;SDS011;51077;42.716;23.344;2023-03-07T02:35:20;12.73;;;7.67;;
64667;SDS011;51077;42.716;23.344;2023-03-07T02:37:48;9.93;;;7.25;;
64667;SDS011;51077;42.716;23.344;2023-03-07T02:40:24;14.23;;;7.10;;
64667;SDS011;51077;42.716;23.344;2023-03-07T02:42:53;10.73;;;6.93;;
64667;SDS011;51077;42.716;23.344;2023-03-07T02:45:21;11.48;;;7.40;;
64667;SDS011;51077;42.716;23.344;2023-03-07T02:47:46;12.03;;;7.43;;
64667;SDS011;51077;42.716;23.344;2023-03-07T02:50:12;13.80;;;7.37;;
64667;SDS011;51077;42.716;23.344;2023-03-07T02:52:39;12.30;;;7.38;;
64667;SDS011;51077;42.716;23.344;2023-03-07T02:55:05;11.65;;;7.50;;
64667;SDS011;51077;42.716;23.344;2023-03-07T02:57:31;13.48;;;7.43;;
64667;SDS011;51077;42.716;23.344;2023-03-07T02:59:57;11.70;;;6.80;;
64667;SDS011;51077;42.716;23.344;2023-03-07T03:02:23;13.40;;;7.03;;
64667;SDS011;51077;42.716;23.344;2023-03-07T03:04:49;12.67;;;6.93;;
64667;SDS011;51077;42.716;23.344;2023-03-07T03:07:14;11.00;;;7.13;;
64667;SDS011;51077;42.716;23.344;2023-03-07T03:09:40;13.63;;;7.73;;
64667;SDS011;51077;42.716;23.344;2023-03-07T03:12:05;12.97;;;6.83;;
64667;SDS011;51077;42.716;23.344;2023-03-07T03:14:31;11.23;;;7.70;;
64667;SDS011;51077;42.716;23.344;2023-03-07T03:16:56;11.07;;;7.00;;
64667;SDS011;51077;42.716;23.344;2023-03-07T03:19:22;10.17;;;6.93;;
64667;SDS011;51077;42.716;23.344;2023-03-07T03:21:47;13.20;;;7.77;;
64667;SDS011;51077;42.716;23.344;2023-03-07T03:24:13;12.57;;;7.10;;
64667;SDS011;51077;42.716;23.344;2023-03-07T03:26:38;10.67;;;6.47;;
64667;SDS011;51077;42.716;23.344;2023-03-07T03:29:04;11.10;;;6.90;;
64667;SDS011;51077;42.716;23.344;2023-03-07T03:31:30;10.13;;;6.75;;
64667;SDS011;51077;42.716;23.344;2023-03-07T03:33:56;11.75;;;6.65;;
64667;SDS011;51077;42.716;23.344;2023-03-07T03:36:23;13.57;;;7.18;;
64667;SDS011;51077;42.716;23.344;2023-03-07T03:38:53;11.35;;;7.05;;
64667;SDS011;51077;42.716;23.344;2023-03-07T03:41:20;11.73;;;6.90;;
64667;SDS011;51077;42.716;23.344;2023-03-07T03:43:46;10.73;;;6.47;;
64667;SDS011;51077;42.716;23.344;2023-03-07T03:46:12;12.90;;;6.75;;
64667;SDS011;51077;42.716;23.344;2023-03-07T03:48:37;12.43;;;6.77;;
64667;SDS011;51077;42.716;23.344;2023-03-07T03:51:06;13.48;;;7.03;;
64667;SDS011;51077;42.716;23.344;2023-03-07T03:53:33;11.52;;;6.80;;
64667;SDS011;51077;42.716;23.344;2023-03-07T03:56:10;10.45;;;6.55;;
64667;SDS011;51077;42.716;23.344;2023-03-07T03:58:38;8.90;;;6.40;;
64667;SDS011;51077;42.716;23.344;2023-03-07T04:01:05;10.68;;;6.80;;
64667;SDS011;51077;42.716;23.344;2023-03-07T04:03:32;10.77;;;7.28;;
64667;SDS011;51077;42.716;23.344;2023-03-07T04:05:59;10.70;;;6.53;;
64667;SDS011;51077;42.716;23.344;2023-03-07T04:08:26;10.27;;;6.15;;
64667;SDS011;51077;42.716;23.344;2023-03-07T04:10:51;12.63;;;7.07;;
64667;SDS011;51077;42.716;23.344;2023-03-07T04:13:17;10.93;;;6.77;;
64667;SDS011;51077;42.716;23.344;2023-03-07T04:15:42;10.10;;;6.67;;
64667;SDS011;51077;42.716;23.344;2023-03-07T04:18:07;13.97;;;7.93;;
64667;SDS011;51077;42.716;23.344;2023-03-07T04:20:33;13.00;;;8.03;;
64667;SDS011;51077;42.716;23.344;2023-03-07T04:22:58;10.97;;;6.93;;
64667;SDS011;51077;42.716;23.344;2023-03-07T04:25:24;11.30;;;7.17;;
64667;SDS011;51077;42.716;23.344;2023-03-07T04:27:49;13.53;;;7.30;;
64667;SDS011;51077;42.716;23.344;2023-03-07T04:30:15;12.00;;;7.53;;
64667;SDS011;51077;42.716;23.344;2023-03-07T04:32:40;12.10;;;7.97;;
64667;SDS011;51077;42.716;23.344;2023-03-07T04:35:06;11.77;;;7.67;;
64667;SDS011;51077;42.716;23.344;2023-03-07T04:37:32;13.80;;;7.68;;
64667;SDS011;51077;42.716;23.344;2023-03-07T04:39:57;11.17;;;7.60;;
64667;SDS011;51077;42.716;23.344;2023-03-07T04:42:23;12.90;;;8.00;;
64667;SDS011;51077;42.716;23.344;2023-03-07T04:44:48;13.80;;;8.30;;
64667;SDS011;51077;42.716;23.344;2023-03-07T04:47:13;11.27;;;7.17;;
64667;SDS011;51077;42.716;23.344;2023-03-07T04:49:39;23.13;;;8.10;;
64667;SDS011;51077;42.716;23.344;2023-03-07T04:52:04;12.23;;;7.43;;
64667;SDS011;51077;42.716;23.344;2023-03-07T04:54:30;13.33;;;7.67;;
64667;SDS011;51077;42.716;23.344;2023-03-07T04:56:55;12.67;;;7.33;;
64667;SDS011;51077;42.716;23.344;2023-03-07T04:59:21;11.02;;;7.45;;
64667;SDS011;51077;42.716;23.344;2023-03-07T05:01:46;12.60;;;7.63;;
64667;SDS011;51077;42.716;23.344;2023-03-07T05:04:12;11.93;;;8.50;;
64667;SDS011;51077;42.716;23.344;2023-03-07T05:06:37;12.10;;;8.00;;
64667;SDS011;51077;42.716;23.344;2023-03-07T05:09:03;12.27;;;7.83;;
64667;SDS011;51077;42.716;23.344;2023-03-07T05:11:28;11.45;;;7.57;;
64667;SDS011;51077;42.716;23.344;2023-03-07T05:13:54;12.53;;;8.73;;
64667;SDS011;51077;42.716;23.344;2023-03-07T05:16:20;13.52;;;8.98;;
64667;SDS011;51077;42.716;23.344;2023-03-07T05:18:46;15.90;;;10.30;;
64667;SDS011;51077;42.716;23.344;2023-03-07T05:21:11;16.07;;;10.67;;
64667;SDS011;51077;42.716;23.344;2023-03-07T05:23:37;16.60;;;9.80;;
64667;SDS011;51077;42.716;23.344;2023-03-07T05:26:02;17.30;;;9.70;;
64667;SDS011;51077;42.716;23.344;2023-03-07T05:28:27;13.13;;;9.23;;
64667;SDS011;51077;42.716;23.344;2023-03-07T05:30:53;15.93;;;9.93;;
64667;SDS011;51077;42.716;23.344;2023-03-07T05:33:18;18.47;;;9.70;;
64667;SDS011;51077;42.716;23.344;2023-03-07T05:35:44;19.30;;;11.43;;
64667;SDS011;51077;42.716;23.344;2023-03-07T05:38:09;14.63;;;9.50;;
64667;SDS011;51077;42.716;23.344;2023-03-07T05:40:35;14.77;;;9.47;;
64667;SDS011;51077;42.716;23.344;2023-03-07T05:43:00;16.27;;;10.60;;
64667;SDS011;51077;42.716;23.344;2023-03-07T05:45:26;14.47;;;9.00;;
64667;SDS011;51077;42.716;23.344;2023-03-07T05:47:51;15.00;;;9.73;;
64667;SDS011;51077;42.716;23.344;2023-03-07T05:50:17;14.93;;;9.03;;
64667;SDS011;51077;42.716;23.344;2023-03-07T05:52:44;15.82;;;9.13;;
64667;SDS011;51077;42.716;23.344;2023-03-07T05:55:09;15.03;;;9.70;;
64667;SDS011;51077;42.716;23.344;2023-03-07T05:57:35;15.77;;;9.73;;
64667;SDS011;51077;42.716;23.344;2023-03-07T06:00:00;16.27;;;9.10;;
64667;SDS011;51077;42.716;23.344;2023-03-07T06:02:26;14.67;;;8.80;;
64667;SDS011;51077;42.716;23.344;2023-03-07T06:04:51;16.87;;;9.47;;
64667;SDS011;51077;42.716;23.344;2023-03-07T06:07:16;14.67;;;9.20;;
64667;SDS011;51077;42.716;23.344;2023-03-07T06:09:42;14.67;;;9.10;;
64667;SDS011;51077;42.716;23.344;2023-03-07T06:12:08;17.43;;;9.60;;
64667;SDS011;51077;42.716;23.344;2023-03-07T06:14:34;13.82;;;8.75;;
64667;SDS011;51077;42.716;23.344;2023-03-07T06:17:00;16.50;;;10.47;;
64667;SDS011;51077;42.716;23.344;2023-03-07T06:19:26;12.05;;;8.35;;
64667;SDS011;51077;42.716;23.344;2023-03-07T06:21:52;13.90;;;9.40;;
64667;SDS011;51077;42.716;23.344;2023-03-07T06:24:17;16.27;;;9.20;;
64667;SDS011;51077;42.716;23.344;2023-03-07T06:26:42;18.33;;;10.20;;
64667;SDS011;51077;42.716;23.344;2023-03-07T06:29:08;16.40;;;10.07;;
64667;SDS011;51077;42.716;23.344;2023-03-07T06:31:33;17.90;;;8.53;;
64667;SDS011;51077;42.716;23.344;2023-03-07T06:33:58;15.03;;;9.20;;
64667;SDS011;51077;42.716;23.344;2023-03-07T06:36:24;16.13;;;9.17;;
64667;SDS011;51077;42.716;23.344;2023-03-07T06:38:49;17.83;;;9.27;;
64667;SDS011;51077;42.716;23.344;2023-03-07T06:41:15;13.87;;;7.87;;
64667;SDS011;51077;42.716;23.344;2023-03-07T06:43:40;15.97;;;9.00;;
64667;SDS011;51077;42.716;23.344;2023-03-07T06:46:06;12.17;;;7.87;;
64667;SDS011;51077;42.716;23.344;2023-03-07T06:48:31;16.37;;;9.03;;
64667;SDS011;51077;42.716;23.344;2023-03-07T06:50:58;13.20;;;8.63;;
64667;SDS011;51077;42.716;23.344;2023-03-07T06:53:24;15.77;;;9.48;;
64667;SDS011;51077;42.716;23.344;2023-03-07T06:55:50;18.93;;;10.40;;
64667;SDS011;51077;42.716;23.344;2023-03-07T06:58:16;16.30;;;9.40;;
64667;SDS011;51077;42.716;23.344;2023-03-07T07:00:42;16.13;;;10.18;;
64667;SDS011;51077;42.716;23.344;2023-03-07T07:03:11;18.90;;;9.97;;
64667;SDS011;51077;42.716;23.344;2023-03-07T07:05:38;19.05;;;9.90;;
64667;SDS011;51077;42.716;23.344;2023-03-07T07:08:03;15.53;;;9.80;;
64667;SDS011;51077;42.716;23.344;2023-03-07T07:10:29;15.83;;;8.57;;
64667;SDS011;51077;42.716;23.344;2023-03-07T07:12:54;17.20;;;9.57;;
64667;SDS011;51077;42.716;23.344;2023-03-07T07:15:21;16.25;;;9.10;;
64667;SDS011;51077;42.716;23.344;2023-03-07T07:17:47;17.70;;;10.10;;
64667;SDS011;51077;42.716;23.344;2023-03-07T07:20:14;12.75;;;8.93;;
64667;SDS011;51077;42.716;23.344;2023-03-07T07:22:39;14.03;;;9.27;;
64667;SDS011;51077;42.716;23.344;2023-03-07T07:25:05;13.60;;;7.83;;
64667;SDS011;51077;42.716;23.344;2023-03-07T07:27:30;12.60;;;8.10;;
64667;SDS011;51077;42.716;23.344;2023-03-07T07:29:55;13.63;;;8.13;;
64667;SDS011;51077;42.716;23.344;2023-03-07T07:32:21;13.43;;;7.37;;
64667;SDS011;51077;42.716;23.344;2023-03-07T07:34:46;18.73;;;8.67;;
64667;SDS011;51077;42.716;23.344;2023-03-07T07:37:12;13.30;;;7.87;;
64667;SDS011;51077;42.716;23.344;2023-03-07T07:39:37;9.87;;;7.00;;
64667;SDS011;51077;42.716;23.344;2023-03-07T07:42:05;11.75;;;6.85;;
64667;SDS011;51077;42.716;23.344;2023-03-07T07:44:30;13.10;;;6.87;;
64667;SDS011;51077;42.716;23.344;2023-03-07T07:46:56;12.90;;;8.40;;
64667;SDS011;51077;42.716;23.344;2023-03-07T07:49:21;13.73;;;7.37;;
64667;SDS011;51077;42.716;23.344;2023-03-07T07:51:47;13.30;;;7.33;;
64667;SDS011;51077;42.716;23.344;2023-03-07T07:54:13;12.10;;;7.47;;
64667;SDS011;51077;42.716;23.344;2023-03-07T07:56:38;10.70;;;6.27;;
64667;SDS011;51077;42.716;23.344;2023-03-07T07:59:04;9.93;;;6.07;;
64667;SDS011;51077;42.716;23.344;2023-03-07T08:01:29;10.07;;;6.43;;
64667;SDS011;51077;42.716;23.344;2023-03-07T08:03:54;10.60;;;7.17;;
64667;SDS011;51077;42.716;23.344;2023-03-07T08:06:21;11.07;;;6.23;;
64667;SDS011;51077;42.716;23.344;2023-03-07T08:08:49;9.57;;;6.00;;
64667;SDS011;51077;42.716;23.344;2023-03-07T08:11:15;12.43;;;6.00;;
64667;SDS011;51077;42.716;23.344;2023-03-07T08:13:41;10.65;;;6.45;;
64667;SDS011;51077;42.716;23.344;2023-03-07T08:16:08;11.37;;;5.87;;
64667;SDS011;51077;42.716;23.344;2023-03-07T08:18:38;11.90;;;5.80;;
64667;SDS011;51077;42.716;23.344;2023-03-07T08:21:04;9.95;;;6.15;;
64667;SDS011;51077;42.716;23.344;2023-03-07T08:23:30;8.32;;;5.63;;
64667;SDS011;51077;42.716;23.344;2023-03-07T08:26:00;11.73;;;6.27;;
64667;SDS011;51077;42.716;23.344;2023-03-07T08:28:26;10.77;;;6.60;;
64667;SDS011;51077;42.716;23.344;2023-03-07T08:30:52;8.97;;;5.40;;
64667;SDS011;51077;42.716;23.344;2023-03-07T08:33:17;10.03;;;5.73;;
64667;SDS011;51077;42.716;23.344;2023-03-07T08:35:42;10.30;;;5.30;;
64667;SDS011;51077;42.716;23.344;2023-03-07T08:38:08;10.43;;;6.00;;
64667;SDS011;51077;42.716;23.344;2023-03-07T08:40:33;8.70;;;5.13;;
64667;SDS011;51077;42.716;23.344;2023-03-07T08:42:59;8.37;;;4.90;;
64667;SDS011;51077;42.716;23.344;2023-03-07T08:45:24;8.50;;;5.33;;
64667;SDS011;51077;42.716;23.344;2023-03-07T08:47:53;7.87;;;5.20;;
64667;SDS011;51077;42.716;23.344;2023-03-07T08:50:20;9.73;;;5.32;;
64667;SDS011;51077;42.716;23.344;2023-03-07T08:52:47;10.10;;;6.07;;
64667;SDS011;51077;42.716;23.344;2023-03-07T08:55:13;8.07;;;5.50;;
64667;SDS011;51077;42.716;23.344;2023-03-07T08:57:38;9.02;;;5.47;;
64667;SDS011;51077;42.716;23.344;2023-03-07T09:00:04;8.43;;;4.77;;
64667;SDS011;51077;42.716;23.344;2023-03-07T09:02:33;8.77;;;5.07;;
64667;SDS011;51077;42.716;23.344;2023-03-07T09:04:58;8.57;;;5.03;;
64667;SDS011;51077;42.716;23.344;2023-03-07T09:07:23;8.47;;;4.90;;
64667;SDS011;51077;42.716;23.344;2023-03-07T09:09:49;7.57;;;4.87;;
64667;SDS011;51077;42.716;23.344;2023-03-07T09:12:14;8.37;;;4.93;;
64667;SDS011;51077;42.716;23.344;2023-03-07T09:14:40;8.90;;;5.30;;
64667;SDS011;51077;42.716;23.344;2023-03-07T09:17:05;7.97;;;5.23;;
64667;SDS011;51077;42.716;23.344;2023-03-07T09:19:30;11.40;;;5.03;;
64667;SDS011;51077;42.716;23.344;2023-03-07T09:21:56;6.80;;;4.73;;
64667;SDS011;51077;42.716;23.344;2023-03-07T09:24:21;8.70;;;4.50;;
64667;SDS011;51077;42.716;23.344;2023-03-07T09:26:47;8.83;;;4.90;;
64667;SDS011;51077;42.716;23.344;2023-03-07T09:29:12;7.97;;;5.37;;
64667;SDS011;51077;42.716;23.344;2023-03-07T09:31:37;7.23;;;4.63;;
64667;SDS011;51077;42.716;23.344;2023-03-07T09:34:04;7.28;;;4.53;;
64667;SDS011;51077;42.716;23.344;2023-03-07T09:36:30;7.23;;;4.20;;
64667;SDS011;51077;42.716;23.344;2023-03-07T09:38:55;8.97;;;4.97;;
64667;SDS011;51077;42.716;23.344;2023-03-07T09:47:20;8.82;;;4.82;;
64667;SDS011;51077;42.716;23.344;2023-03-07T09:49:51;8.05;;;4.63;;
64667;SDS011;51077;42.716;23.344;2023-03-07T09:52:19;7.15;;;4.15;;
64667;SDS011;51077;42.716;23.344;2023-03-07T09:54:55;8.13;;;4.70;;
64667;SDS011;51077;42.716;23.344;2023-03-07T09:59:55;6.70;;;4.53;;
64667;SDS011;51077;42.716;23.344;2023-03-07T10:02:52;9.07;;;4.70;;
64667;SDS011;51077;42.716;23.344;2023-03-07T10:05:42;10.32;;;4.60;;
64667;SDS011;51077;42.716;23.344;2023-03-07T10:08:15;6.88;;;4.45;;
64667;SDS011;51077;42.716;23.344;2023-03-07T10:13:48;5.57;;;3.72;;
64667;SDS011;51077;42.716;23.344;2023-03-07T10:22:13;7.70;;;4.15;;
64667;SDS011;51077;42.716;23.344;2023-03-07T10:27:15;6.43;;;3.58;;
64667;SDS011;51077;42.716;23.344;2023-03-07T10:34:48;4.63;;;3.30;;
64667;SDS011;51077;42.716;23.344;2023-03-07T10:37:20;5.82;;;3.13;;
64667;SDS011;51077;42.716;23.344;2023-03-07T10:39:55;4.63;;;2.90;;
64667;SDS011;51077;42.716;23.344;2023-03-07T10:42:21;6.60;;;3.10;;
64667;SDS011;51077;42.716;23.344;2023-03-07T10:44:49;5.10;;;3.07;;
64667;SDS011;51077;42.716;23.344;2023-03-07T10:47:25;6.60;;;3.27;;
64667;SDS011;51077;42.716;23.344;2023-03-07T10:49:53;5.33;;;2.93;;
64667;SDS011;51077;42.716;23.344;2023-03-07T10:55:28;5.47;;;2.80;;
64667;SDS011;51077;42.716;23.344;2023-03-07T10:58:12;4.73;;;2.90;;
64667;SDS011;51077;42.716;23.344;2023-03-07T11:00:44;5.10;;;2.13;;
64667;SDS011;51077;42.716;23.344;2023-03-07T11:05:51;6.27;;;3.53;;
64667;SDS011;51077;42.716;23.344;2023-03-07T11:08:34;6.73;;;2.60;;
64667;SDS011;51077;42.716;23.344;2023-03-07T11:11:00;4.15;;;2.50;;
64667;SDS011;51077;42.716;23.344;2023-03-07T11:13:28;4.57;;;2.47;;
64667;SDS011;51077;42.716;23.344;2023-03-07T11:18:47;4.87;;;2.20;;
64667;SDS011;51077;42.716;23.344;2023-03-07T11:21:32;5.33;;;2.37;;
64667;SDS011;51077;42.716;23.344;2023-03-07T11:24:08;4.88;;;1.92;;
64667;SDS011;51077;42.716;23.344;2023-03-07T11:26:47;3.70;;;2.20;;
64667;SDS011;51077;42.716;23.344;2023-03-07T11:29:18;6.03;;;1.98;;
64667;SDS011;51077;42.716;23.344;2023-03-07T11:31:46;5.20;;;2.13;;
64667;SDS011;51077;42.716;23.344;2023-03-07T11:34:26;2.70;;;1.92;;
64667;SDS011;51077;42.716;23.344;2023-03-07T11:37:27;3.97;;;2.10;;
64667;SDS011;51077;42.716;23.344;2023-03-07T11:42:27;4.50;;;2.00;;
64667;SDS011;51077;42.716;23.344;2023-03-07T11:47:59;5.38;;;1.90;;
64667;SDS011;51077;42.716;23.344;2023-03-07T11:50:54;6.33;;;1.77;;
64667;SDS011;51077;42.716;23.344;2023-03-07T11:56:21;3.67;;;1.50;;
64667;SDS011;51077;42.716;23.344;2023-03-07T12:23:18;2.67;;;1.50;;
64667;SDS011;51077;42.716;23.344;2023-03-07T12:25:56;3.50;;;1.40;;
64667;SDS011;51077;42.716;23.344;2023-03-07T12:28:26;5.15;;;1.80;;
64667;SDS011;51077;42.716;23.344;2023-03-07T12:31:10;5.63;;;1.17;;
64667;SDS011;51077;42.716;23.344;2023-03-07T12:39:17;3.33;;;1.10;;
64667;SDS011;51077;42.716;23.344;2023-03-07T12:44:49;3.47;;;1.25;;
64667;SDS011;51077;42.716;23.344;2023-03-07T12:53:05;3.75;;;1.40;;
64667;SDS011;51077;42.716;23.344;2023-03-07T13:01:09;2.80;;;1.40;;
64667;SDS011;51077;42.716;23.344;2023-03-07T13:04:00;2.20;;;1.20;;
64667;SDS011;51077;42.716;23.344;2023-03-07T13:06:45;4.88;;;1.27;;
64667;SDS011;51077;42.716;23.344;2023-03-07T13:09:13;2.80;;;1.00;;
64667;SDS011;51077;42.716;23.344;2023-03-07T13:17:55;3.38;;;1.10;;
64667;SDS011;51077;42.716;23.344;2023-03-07T13:22:59;2.17;;;0.90;;
64667;SDS011;51077;42.716;23.344;2023-03-07T13:25:48;2.78;;;1.30;;
64667;SDS011;51077;42.716;23.344;2023-03-07T13:28:33;1.80;;;0.98;;
64667;SDS011;51077;42.716;23.344;2023-03-07T13:33:41;2.10;;;0.98;;
64667;SDS011;51077;42.716;23.344;2023-03-07T13:36:29;2.40;;;1.10;;
64667;SDS011;51077;42.716;23.344;2023-03-07T13:39:03;2.85;;;0.90;;
64667;SDS011;51077;42.716;23.344;2023-03-07T13:41:49;3.47;;;1.20;;
64667;SDS011;51077;42.716;23.344;2023-03-07T13:44:57;2.28;;;1.00;;
64667;SDS011;51077;42.716;23.344;2023-03-07T13:50:30;2.42;;;0.95;;
64667;SDS011;51077;42.716;23.344;2023-03-07T13:53:13;5.00;;;1.38;;
64667;SDS011;51077;42.716;23.344;2023-03-07T13:58:43;2.17;;;1.20;;
64667;SDS011;51077;42.716;23.344;2023-03-07T14:01:20;2.60;;;1.02;;
64667;SDS011;51077;42.716;23.344;2023-03-07T14:03:50;2.97;;;1.05;;
64667;SDS011;51077;42.716;23.344;2023-03-07T14:06:17;3.30;;;1.33;;
64667;SDS011;51077;42.716;23.344;2023-03-07T14:08:47;2.53;;;1.30;;
64667;SDS011;51077;42.716;23.344;2023-03-07T14:11:20;6.00;;;1.52;;
64667;SDS011;51077;42.716;23.344;2023-03-07T14:16:22;4.65;;;1.30;;
64667;SDS011;51077;42.716;23.344;2023-03-07T14:28:01;3.15;;;1.20;;
64667;SDS011;51077;42.716;23.344;2023-03-07T14:30:30;3.33;;;0.95;;
64667;SDS011;51077;42.716;23.344;2023-03-07T14:32:57;4.60;;;1.23;;
64667;SDS011;51077;42.716;23.344;2023-03-07T14:35:38;2.22;;;1.25;;
64667;SDS011;51077;42.716;23.344;2023-03-07T14:38:05;3.30;;;1.60;;
64667;SDS011;51077;42.716;23.344;2023-03-07T14:52:11;3.25;;;1.35;;
64667;SDS011;51077;42.716;23.344;2023-03-07T14:54:42;4.88;;;1.30;;
64667;SDS011;51077;42.716;23.344;2023-03-07T14:57:12;6.28;;;1.10;;
64667;SDS011;51077;42.716;23.344;2023-03-07T15:05:18;3.83;;;1.40;;
64667;SDS011;51077;42.716;23.344;2023-03-07T15:07:45;4.00;;;1.38;;
64667;SDS011;51077;42.716;23.344;2023-03-07T15:13:15;4.68;;;1.42;;
64667;SDS011;51077;42.716;23.344;2023-03-07T15:15:55;4.13;;;1.58;;
64667;SDS011;51077;42.716;23.344;2023-03-07T15:18:29;3.63;;;1.45;;
64667;SDS011;51077;42.716;23.344;2023-03-07T15:20:58;5.32;;;1.48;;
64667;SDS011;51077;42.716;23.344;2023-03-07T15:23:26;3.55;;;1.70;;
64667;SDS011;51077;42.716;23.344;2023-03-07T15:26:03;4.10;;;1.85;;
64667;SDS011;51077;42.716;23.344;2023-03-07T15:28:37;4.28;;;1.50;;
64667;SDS011;51077;42.716;23.344;2023-03-07T15:31:06;3.95;;;1.20;;
64667;SDS011;51077;42.716;23.344;2023-03-07T15:33:35;2.75;;;1.25;;
64667;SDS011;51077;42.716;23.344;2023-03-07T15:38:35;4.63;;;1.70;;
64667;SDS011;51077;42.716;23.344;2023-03-07T15:41:01;3.35;;;1.40;;
64667;SDS011;51077;42.716;23.344;2023-03-07T15:43:46;4.07;;;1.55;;
64667;SDS011;51077;42.716;23.344;2023-03-07T15:46:39;5.30;;;1.42;;
64667;SDS011;51077;42.716;23.344;2023-03-07T15:49:34;3.30;;;1.63;;
64667;SDS011;51077;42.716;23.344;2023-03-07T15:52:05;4.55;;;1.50;;
64667;SDS011;51077;42.716;23.344;2023-03-07T15:54:33;6.60;;;1.80;;
64667;SDS011;51077;42.716;23.344;2023-03-07T15:57:04;7.25;;;1.67;;
64667;SDS011;51077;42.716;23.344;2023-03-07T15:59:36;5.30;;;1.80;;
64667;SDS011;51077;42.716;23.344;2023-03-07T16:02:29;3.80;;;1.70;;
64667;SDS011;51077;42.716;23.344;2023-03-07T16:07:51;5.25;;;2.10;;
64667;SDS011;51077;42.716;23.344;2023-03-07T16:10:18;3.83;;;1.67;;
64667;SDS011;51077;42.716;23.344;2023-03-07T16:12:45;4.28;;;2.17;;
64667;SDS011;51077;42.716;23.344;2023-03-07T16:15:12;4.32;;;1.70;;
64667;SDS011;51077;42.716;23.344;2023-03-07T16:17:39;3.05;;;1.52;;
64667;SDS011;51077;42.716;23.344;2023-03-07T16:20:15;4.45;;;1.60;;
64667;SDS011;51077;42.716;23.344;2023-03-07T16:22:42;6.68;;;1.75;;
64667;SDS011;51077;42.716;23.344;2023-03-07T16:25:08;3.83;;;1.70;;
64667;SDS011;51077;42.716;23.344;2023-03-07T16:27:36;4.07;;;1.60;;
64667;SDS011;51077;42.716;23.344;2023-03-07T16:30:08;4.57;;;1.73;;
64667;SDS011;51077;42.716;23.344;2023-03-07T16:32:38;4.97;;;1.67;;
64667;SDS011;51077;42.716;23.344;2023-03-07T16:35:10;3.57;;;1.70;;
64667;SDS011;51077;42.716;23.344;2023-03-07T16:37:38;3.63;;;1.45;;
64667;SDS011;51077;42.716;23.344;2023-03-07T16:40:04;5.10;;;1.50;;
64667;SDS011;51077;42.716;23.344;2023-03-07T16:42:32;4.43;;;1.80;;
64667;SDS011;51077;42.716;23.344;2023-03-07T16:44:58;3.67;;;2.00;;
64667;SDS011;51077;42.716;23.344;2023-03-07T16:47:23;3.73;;;1.90;;
64667;SDS011;51077;42.716;23.344;2023-03-07T16:49:49;4.37;;;1.43;;
64667;SDS011;51077;42.716;23.344;2023-03-07T16:52:15;3.33;;;1.60;;
64667;SDS011;51077;42.716;23.344;2023-03-07T16:54:40;8.07;;;1.73;;
64667;SDS011;51077;42.716;23.344;2023-03-07T16:57:06;6.13;;;1.97;;
64667;SDS011;51077;42.716;23.344;2023-03-07T16:59:37;6.78;;;2.03;;
64667;SDS011;51077;42.716;23.344;2023-03-07T17:02:16;4.07;;;1.90;;